Asphalt Eagle — SVBC6 — position and weather

sailwx.info

Track history (hours):
 
Tides and Currents Weather Stations Pressure Air Temp Water Temp Dewpoint Dewpoint Depression Visibility Wind Speed Wind Dir Waves Ship Positions

Asphalt Eagle

Last reported at 2017-Dec-09 19:20 UTC. Time now 2017-Dec-12 23:31 UTC.
Position N 37°38' W 023°10'.

Length 183 m; draft 8 m.

Type: Ship (hazmat cat A). MMSI: 241055000.

Date/timePositionNaut miles runAvg speedWind from/ knotsBaromVisibWave heightAir tempDewpointWater temp
2017-Dec-09 19:20N 37°38' W 023°10'1813.4
2017-Dec-09 18:01N 37°48' W 023°29'013.0
2017-Dec-09 18:00N 37°48' W 023°29'713.4
2017-Dec-09 17:30N 37°51' W 023°36'1113.5
2017-Dec-09 16:42N 37°57' W 023°48'313.4
2017-Dec-09 16:30N 37°59' W 023°51'613.2
2017-Dec-09 16:00N 38°02' W 023°58'713.3
2017-Dec-09 15:30N 38°06' W 024°05'713.3
2017-Dec-09 15:00N 38°09' W 024°12'713.1
2017-Dec-09 14:30N 38°13' W 024°19'613.0
2017-Dec-09 14:00N 38°16' W 024°26'713.2
2017-Dec-09 13:30N 38°20' W 024°33'713.2
2017-Dec-09 13:00N 38°24' W 024°40'713.3
2017-Dec-09 12:30N 38°27' W 024°47'713.4
2017-Dec-09 12:00N 38°31' W 024°54'713.3
2017-Dec-09 11:30N 38°34' W 025°01'713.1
2017-Dec-09 11:00N 38°38' W 025°08'713.2
2017-Dec-09 10:30N 38°41' W 025°16'713.0
2017-Dec-09 10:00N 38°45' W 025°23'713.2
2017-Dec-09 09:30N 38°49' W 025°30'613.2
2017-Dec-09 09:00N 38°52' W 025°37'713.4
2017-Dec-09 08:30N 38°56' W 025°44'713.6
2017-Dec-09 07:58N 38°60' W 025°52'613.5
2017-Dec-09 07:30N 39°03' W 025°59'4413.5
2017-Dec-09 04:12N 39°28' W 026°47'313.5
2017-Dec-09 04:00N 39°29' W 026°50'713.7
2017-Dec-09 03:30N 39°32' W 026°57'713.4
2017-Dec-09 03:00N 39°36' W 027°05'1413.3
2017-Dec-09 01:59N 39°44' W 027°19'2813.2
2017-Dec-08 23:51N 39°59' W 027°50'512.8
2017-Dec-08 23:28N 40°01' W 027°56'612.6
2017-Dec-08 23:00N 40°05' W 028°02'2212.9
2017-Dec-08 21:18N 40°16' W 028°26'  
Track history (hours):
 
Tides and Currents Weather Stations Pressure Air Temp Water Temp Dewpoint Dewpoint Depression Visibility Wind Speed Wind Dir Waves Ship Positions

Asphalt Eagle

Last reported at 2017-Dec-09 19:20 UTC. Time now 2017-Dec-12 23:31 UTC.
Position N 37°38' W 023°10'.

Length 183 m; draft 8 m.

Type: Ship (hazmat cat A). MMSI: 241055000.

Date/timePositionNaut miles runAvg speedWind from/ knotsBaromVisibWave heightAir tempDewpointWater temp
2017-Dec-09 19:20N 37°38' W 023°10'1813.4
2017-Dec-09 18:01N 37°48' W 023°29'013.0
2017-Dec-09 18:00N 37°48' W 023°29'713.4
2017-Dec-09 17:30N 37°51' W 023°36'1113.5
2017-Dec-09 16:42N 37°57' W 023°48'313.4
2017-Dec-09 16:30N 37°59' W 023°51'613.2
2017-Dec-09 16:00N 38°02' W 023°58'713.3
2017-Dec-09 15:30N 38°06' W 024°05'713.3
2017-Dec-09 15:00N 38°09' W 024°12'713.1
2017-Dec-09 14:30N 38°13' W 024°19'613.0
2017-Dec-09 14:00N 38°16' W 024°26'713.2
2017-Dec-09 13:30N 38°20' W 024°33'713.2
2017-Dec-09 13:00N 38°24' W 024°40'713.3
2017-Dec-09 12:30N 38°27' W 024°47'713.4
2017-Dec-09 12:00N 38°31' W 024°54'713.3
2017-Dec-09 11:30N 38°34' W 025°01'713.1
2017-Dec-09 11:00N 38°38' W 025°08'713.2
2017-Dec-09 10:30N 38°41' W 025°16'713.0
2017-Dec-09 10:00N 38°45' W 025°23'713.2
2017-Dec-09 09:30N 38°49' W 025°30'613.2
2017-Dec-09 09:00N 38°52' W 025°37'713.4
2017-Dec-09 08:30N 38°56' W 025°44'713.6
2017-Dec-09 07:58N 38°60' W 025°52'613.5
2017-Dec-09 07:30N 39°03' W 025°59'4413.5
2017-Dec-09 04:12N 39°28' W 026°47'313.5
2017-Dec-09 04:00N 39°29' W 026°50'713.7
2017-Dec-09 03:30N 39°32' W 026°57'713.4
2017-Dec-09 03:00N 39°36' W 027°05'1413.3
2017-Dec-09 01:59N 39°44' W 027°19'2813.2
2017-Dec-08 23:51N 39°59' W 027°50'512.8
2017-Dec-08 23:28N 40°01' W 027°56'612.6
2017-Dec-08 23:00N 40°05' W 028°02'2212.9
2017-Dec-08 21:18N 40°16' W 028°26'  

Dump ship's entire track history